»·PEaware :: N487T KAVX-KSAN

N487T :: KAVX-KSAN

FLIGHT INFORMATION

Flight Status: Arrived
Operator: Privately registered:
United States
More flights under this callsign
Pilot: Ron W. (19735)
Aircraft: BEECH AIRCRAFT DEBONAIR BONANZA
(BE33)
More flights by this aircraft type
Origin: KAVX Catalina
United States
Destination: KSAN San Diego Intl-Lindbergh
United States
More flights between these airports :: More routes between these airports
Route: SXC V208 OCN V23 MZB
File this flight plan on PilotEdge
Remarks: I-8 Rating
Altitude:
(Current/Filed)
7,000ft
Speed:
(Current/Filed)
120kts
Departed: 05-Aug-18 06:25 PM
Arrived: 05-Aug-18 07:27 PM
Distance/Time
Traveled:
74nm/1:01
Distance/Time
To Go:
Arrived

Flight Plot

Page will automatically refresh every two minutes.


Map Options




Map Legend


Flown Route
Filed Route
Departure Airport
Arrival Airport
Navaid (VOR, NDB)
Fix

Horizontal Profiles

Position Reports

Time Latitude Longitude Heading Altitude Ground
Speed
05-Aug-18 18:04 33.403604 -118.415724 143 1606ft 0kts
05-Aug-18 18:05 33.403604 -118.415724 143 1606ft 0kts
05-Aug-18 18:06 33.403604 -118.415724 143 1606ft 0kts
05-Aug-18 18:07 33.403604 -118.415724 143 1606ft 0kts
05-Aug-18 18:08 33.403604 -118.415724 143 1606ft 0kts
05-Aug-18 18:09 33.403604 -118.415724 143 1606ft 0kts
05-Aug-18 18:10 33.403604 -118.415724 143 1606ft 0kts
05-Aug-18 18:11 33.403604 -118.415724 143 1606ft 0kts
05-Aug-18 18:12 33.403604 -118.415724 143 1606ft 0kts
05-Aug-18 18:13 33.403604 -118.415724 143 1606ft 0kts
05-Aug-18 18:14 33.403604 -118.415724 143 1606ft 0kts
05-Aug-18 18:15 33.403604 -118.415724 143 1606ft 0kts
05-Aug-18 18:16 33.403604 -118.415724 143 1606ft 0kts
05-Aug-18 18:17 33.403604 -118.415724 143 1606ft 0kts
05-Aug-18 18:18 33.403604 -118.415724 143 1606ft 0kts
05-Aug-18 18:19 33.403604 -118.415724 143 1606ft 0kts
05-Aug-18 18:20 33.405504 -118.414201 55 1606ft 14kts
05-Aug-18 18:21 33.406670 -118.412252 54 1606ft 2kts
05-Aug-18 18:22 33.407155 -118.411434 52 1606ft 0kts
05-Aug-18 18:23 33.407155 -118.411434 52 1606ft 0kts
05-Aug-18 18:24 33.407155 -118.411434 52 1606ft 0kts
05-Aug-18 18:25 33.407155 -118.411434 52 1606ft 0kts
05-Aug-18 18:26 33.404718 -118.416248 239 1637ft 71kts
05-Aug-18 18:27 33.387531 -118.434248 189 2521ft 90kts
05-Aug-18 18:28 33.374251 -118.409330 125 2824ft 142kts
05-Aug-18 18:29 33.356516 -118.371671 101 3419ft 138kts
05-Aug-18 18:30 33.351614 -118.326337 91 3999ft 153kts
05-Aug-18 18:31 33.352729 -118.272303 83 4092ft 163kts
05-Aug-18 18:32 33.346293 -118.220890 102 4564ft 152kts
05-Aug-18 18:33 33.339428 -118.171940 96 4976ft 152kts
05-Aug-18 18:34 33.338164 -118.118643 94 4977ft 165kts
05-Aug-18 18:35 33.330004 -118.075638 81 4974ft 160kts
05-Aug-18 18:36 33.322665 -118.023244 113 4969ft 134kts
05-Aug-18 18:37 33.311468 -117.982340 105 4973ft 126kts
05-Aug-18 18:38 33.305100 -117.948865 101 4975ft 122kts
05-Aug-18 18:39 33.298165 -117.902448 98 4978ft 121kts
05-Aug-18 18:40 33.293850 -117.869254 97 4979ft 121kts
05-Aug-18 18:41 33.289018 -117.829640 96 5008ft 118kts
05-Aug-18 18:42 33.283699 -117.784103 96 5018ft 118kts
05-Aug-18 18:43 33.279941 -117.751670 96 5018ft 118kts
05-Aug-18 18:44 33.275447 -117.712523 96 5018ft 118kts
05-Aug-18 18:45 33.271180 -117.675405 96 5019ft 118kts
05-Aug-18 18:46 33.266658 -117.636132 96 5020ft 122kts
05-Aug-18 18:47 33.262309 -117.598727 96 5020ft 126kts
05-Aug-18 18:48 33.257480 -117.556817 96 5017ft 128kts
05-Aug-18 18:49 33.252570 -117.514439 97 5014ft 130kts
05-Aug-18 18:50 33.247583 -117.471660 97 5011ft 130kts
05-Aug-18 18:51 33.242580 -117.428936 98 5009ft 130kts
05-Aug-18 18:52 33.217536 -117.403851 158 5009ft 123kts
05-Aug-18 18:53 33.185929 -117.388107 172 5012ft 122kts
05-Aug-18 18:54 33.152737 -117.379262 168 5015ft 123kts
05-Aug-18 18:55 33.119716 -117.368443 166 5018ft 124kts
05-Aug-18 18:56 33.086653 -117.356587 165 5019ft 125kts
05-Aug-18 18:57 33.053332 -117.344219 165 5018ft 126kts
05-Aug-18 18:58 33.020010 -117.331678 164 5018ft 126kts
05-Aug-18 18:59 32.987446 -117.315525 148 5009ft 127kts
05-Aug-18 19:00 32.955290 -117.298992 159 5010ft 126kts
05-Aug-18 19:01 32.923000 -117.282861 161 5009ft 126kts
05-Aug-18 19:02 32.889850 -117.269152 162 5009ft 126kts
05-Aug-18 19:03 32.867156 -117.242755 102 5011ft 126kts
05-Aug-18 19:04 32.859070 -117.202073 101 5012ft 126kts
05-Aug-18 19:05 32.850930 -117.161164 101 4986ft 128kts
05-Aug-18 19:06 32.842735 -117.120177 101 4989ft 127kts
05-Aug-18 19:07 32.834542 -117.079440 101 4990ft 126kts
05-Aug-18 19:08 32.826245 -117.039017 101 4989ft 126kts
05-Aug-18 19:09 32.817719 -116.998425 101 4987ft 126kts
05-Aug-18 19:10 32.809029 -116.958075 101 4984ft 125kts
05-Aug-18 19:11 32.801083 -116.919245 101 4982ft 118kts
05-Aug-18 19:12 32.795848 -116.881208 101 4982ft 115kts
05-Aug-18 19:13 32.790688 -116.843864 101 4983ft 114kts
05-Aug-18 19:14 32.780623 -116.810633 167 4984ft 104kts
05-Aug-18 19:15 32.752589 -116.814138 192 4992ft 101kts
05-Aug-18 19:16 32.724149 -116.820219 192 5004ft 115kts
05-Aug-18 19:17 32.696322 -116.844676 250 4231ft 155kts
05-Aug-18 19:18 32.682318 -116.891039 249 3800ft 136kts
05-Aug-18 19:19 32.670370 -116.929922 264 3796ft 118kts
05-Aug-18 19:20 32.678835 -116.967102 288 3614ft 123kts
05-Aug-18 19:21 32.688228 -117.004398 286 3178ft 104kts
05-Aug-18 19:22 32.695889 -117.035581 286 2694ft 88kts
05-Aug-18 19:23 32.703178 -117.065295 287 2468ft 102kts
05-Aug-18 19:24 32.710466 -117.095195 286 1983ft 92kts
05-Aug-18 19:25 32.718026 -117.126036 286 1026ft 92kts
05-Aug-18 19:26 32.724353 -117.152169 288 596ft 77kts
05-Aug-18 19:27 32.730354 -117.176556 287 121ft 74kts
05-Aug-18 19:28 32.733752 -117.190381 291 21ft 13kts
05-Aug-18 19:29 32.734719 -117.190713 27 21ft 0kts
05-Aug-18 19:30 32.734342 -117.188117 106 21ft 18kts
05-Aug-18 19:31 32.732557 -117.180756 106 21ft 24kts
05-Aug-18 19:32 32.732602 -117.178590 196 21ft 0kts

Navigation Log

Ident Type
Flight plan parsing failed, navigation log unavailable